createdAt,value
2019-01-16T00:01:21.077Z,6.43
2019-01-16T00:04:00.708Z,5.87
2019-01-16T00:07:02.226Z,5.47
2019-01-16T00:09:50.480Z,5.13
2019-01-16T00:12:29.370Z,4.23
2019-01-16T00:15:31.186Z,4.95
2019-01-16T00:18:21.424Z,4.27
2019-01-16T00:21:10.864Z,4.70
2019-01-16T00:24:00.103Z,4.93
2019-01-16T00:26:47.497Z,5.33
2019-01-16T00:29:54.857Z,5.33
2019-01-16T00:32:43.034Z,5.20
2019-01-16T00:35:31.353Z,4.97
2019-01-16T00:38:19.491Z,5.37
2019-01-16T00:41:07.609Z,4.63
2019-01-16T00:43:56.891Z,5.60
2019-01-16T00:46:56.409Z,5.23
2019-01-16T00:49:48.440Z,4.40
2019-01-16T00:52:37.604Z,5.03
2019-01-16T00:55:34.272Z,5.00
2019-01-16T00:58:22.930Z,5.37
2019-01-16T01:01:15.169Z,4.97
2019-01-16T01:04:19.682Z,5.37
2019-01-16T01:07:08.892Z,4.83
2019-01-16T01:10:16.263Z,5.13
2019-01-16T01:13:04.106Z,4.70
2019-01-16T01:15:53.286Z,5.00
2019-01-16T01:19:00.960Z,4.73
2019-01-16T01:21:42.829Z,4.80
2019-01-16T01:24:37.561Z,4.93
2019-01-16T01:27:23.412Z,4.43
2019-01-16T01:30:24.970Z,5.27
2019-01-16T01:33:29.675Z,4.65
2019-01-16T01:36:17.477Z,5.10
2019-01-16T01:38:55.775Z,4.80
2019-01-16T01:41:57.091Z,4.47
2019-01-16T01:44:46.307Z,5.23
2019-01-16T01:47:35.578Z,5.70
2019-01-16T01:50:26.313Z,4.60
2019-01-16T01:53:18.602Z,4.67
2019-01-16T01:56:06.437Z,4.83
2019-01-16T01:59:01.758Z,5.20
2019-01-16T02:01:56.851Z,4.80
2019-01-16T02:04:46.093Z,4.57
2019-01-16T02:07:35.332Z,4.83
2019-01-16T02:10:25.071Z,4.53
2019-01-16T02:13:13.218Z,4.95
2019-01-16T02:16:02.300Z,4.60
2019-01-16T02:19:09.620Z,4.60
2019-01-16T02:22:05.449Z,4.70
2019-01-16T02:24:53.417Z,5.07
2019-01-16T02:27:43.395Z,4.80
2019-01-16T02:30:20.489Z,4.67
2019-01-16T02:33:21.945Z,4.40
2019-01-16T02:36:14.911Z,5.33
2019-01-16T02:39:08.684Z,4.40
2019-01-16T02:41:54.235Z,4.30
2019-01-16T02:44:35.445Z,5.20
2019-01-16T02:47:23.178Z,3.93
2019-01-16T02:50:11.355Z,4.20
2019-01-16T02:52:58.510Z,4.60
2019-01-16T02:55:46.334Z,4.23
2019-01-16T02:58:35.647Z,4.80
2019-01-16T03:01:18.565Z,5.60
2019-01-16T03:04:06.961Z,5.13
2019-01-16T03:07:01.950Z,4.93
2019-01-16T03:09:54.037Z,5.03
2019-01-16T03:12:33.784Z,4.93
2019-01-16T03:15:21.125Z,5.13
2019-01-16T03:18:00.234Z,5.10
2019-01-16T03:20:55.576Z,5.30
2019-01-16T03:23:54.012Z,4.97
2019-01-16T03:26:55.658Z,4.93
2019-01-16T03:29:36.364Z,5.03
2019-01-16T03:32:26.094Z,5.30
2019-01-16T03:35:02.116Z,5.27
2019-01-16T03:37:47.367Z,4.80
2019-01-16T03:40:39.474Z,5.30
2019-01-16T03:43:34.804Z,4.87
2019-01-16T03:46:21.490Z,5.17
2019-01-16T03:49:13.885Z,5.17
2019-01-16T03:51:53.426Z,6.33
2019-01-16T03:54:48.582Z,5.93
2019-01-16T03:57:41.046Z,5.30
2019-01-16T04:00:44.896Z,5.35
2019-01-16T04:03:46.551Z,5.60
2019-01-16T04:06:34.626Z,5.97
2019-01-16T04:09:25.476Z,6.00
2019-01-16T04:12:14.705Z,5.20
2019-01-16T04:15:03.914Z,6.23
2019-01-16T04:17:55.941Z,5.83
2019-01-16T04:20:45.177Z,5.90
2019-01-16T04:23:34.393Z,5.13
2019-01-16T04:26:23.559Z,5.77
2019-01-16T04:29:09.017Z,5.50
2019-01-16T04:31:58.257Z,5.70
2019-01-16T04:34:56.605Z,5.77
2019-01-16T04:37:37.582Z,6.33
2019-01-16T04:40:36.453Z,6.37
2019-01-16T04:43:31.803Z,6.33
2019-01-16T04:46:24.189Z,7.10
2019-01-16T04:49:19.451Z,7.20
2019-01-16T04:52:14.990Z,6.97
2019-01-16T04:55:04.231Z,6.67
2019-01-16T04:57:47.231Z,6.50
2019-01-16T05:00:35.531Z,7.07
2019-01-16T05:03:24.699Z,6.83
2019-01-16T05:06:17.187Z,7.13
2019-01-16T05:09:06.407Z,7.33
2019-01-16T05:11:48.054Z,8.23
2019-01-16T05:14:29.632Z,7.20
2019-01-16T05:17:11.017Z,8.17
2019-01-16T05:20:15.403Z,7.63
2019-01-16T05:23:03.694Z,7.37
2019-01-16T05:25:53.427Z,8.00
2019-01-16T05:28:45.540Z,8.57
2019-01-16T05:31:33.456Z,7.33
2019-01-16T05:34:37.358Z,7.53
2019-01-16T05:37:25.463Z,7.47
2019-01-16T05:40:17.782Z,7.93
2019-01-16T05:43:10.522Z,7.90
2019-01-16T05:45:59.728Z,8.37
2019-01-16T05:48:48.375Z,8.20
2019-01-16T05:51:26.584Z,7.60
2019-01-16T05:54:31.087Z,8.20
2019-01-16T05:57:21.660Z,7.60
2019-01-16T06:00:07.224Z,8.03
2019-01-16T06:02:55.358Z,8.67
2019-01-16T06:05:53.939Z,8.47
2019-01-16T06:08:49.237Z,8.47
2019-01-16T06:11:38.424Z,8.77
2019-01-16T06:14:26.425Z,8.40
2019-01-16T06:17:24.472Z,8.70
2019-01-16T06:20:23.898Z,8.75
2019-01-16T06:23:13.122Z,8.33
2019-01-16T06:26:05.586Z,9.73
2019-01-16T06:28:54.847Z,9.20
2019-01-16T06:31:59.091Z,9.47
2019-01-16T06:34:35.943Z,9.40
2019-01-16T06:37:32.962Z,10.43
2019-01-16T06:40:10.689Z,9.17
2019-01-16T06:42:48.971Z,8.97
2019-01-16T06:45:26.493Z,9.70
2019-01-16T06:48:15.636Z,8.97
2019-01-16T06:50:57.752Z,9.90
2019-01-16T06:53:53.242Z,9.60
2019-01-16T06:56:45.506Z,9.10
2019-01-16T06:59:33.300Z,9.83
2019-01-16T07:02:31.603Z,9.55
2019-01-16T07:05:19.699Z,9.37
2019-01-16T07:08:07.717Z,9.30
2019-01-16T07:10:55.658Z,9.57
2019-01-16T07:13:53.763Z,10.43
2019-01-16T07:16:58.205Z,9.60
2019-01-16T07:19:59.551Z,10.07
2019-01-16T07:22:49.120Z,9.17
2019-01-16T07:25:38.350Z,10.57
2019-01-16T07:28:20.411Z,10.73
2019-01-16T07:31:08.797Z,9.73
2019-01-16T07:33:56.325Z,9.90
2019-01-16T07:36:46.073Z,9.60
2019-01-16T07:39:29.198Z,10.03
2019-01-16T07:42:21.359Z,9.43
2019-01-16T07:45:19.600Z,9.75
2019-01-16T07:48:11.543Z,10.33
2019-01-16T07:50:59.476Z,9.40
2019-01-16T07:53:47.621Z,8.97
2019-01-16T07:56:37.984Z,8.83
2019-01-16T07:59:30.343Z,10.83
2019-01-16T08:02:25.774Z,11.22
2019-01-16T08:05:21.674Z,10.27
2019-01-16T08:08:04.754Z,10.47
2019-01-16T08:10:48.642Z,10.80
2019-01-16T08:13:34.495Z,10.73
2019-01-16T08:16:26.520Z,9.97
2019-01-16T08:19:14.455Z,9.87
2019-01-16T08:22:02.559Z,9.70
2019-01-16T08:25:05.589Z,9.80
2019-01-16T08:28:04.981Z,9.33
2019-01-16T08:30:50.469Z,8.63
2019-01-16T08:33:42.813Z,9.23
2019-01-16T08:36:32.071Z,9.93
2019-01-16T08:39:33.524Z,8.70
2019-01-16T08:42:42.396Z,8.90
2019-01-16T08:45:31.705Z,9.63
2019-01-16T08:48:26.635Z,9.43
2019-01-16T08:51:14.439Z,9.67
2019-01-16T08:54:02.426Z,9.23
2019-01-16T08:59:45.085Z,9.07
2019-01-16T09:02:43.447Z,9.80
2019-01-16T09:05:32.313Z,9.27
2019-01-16T09:08:36.834Z,9.87
2019-01-16T09:11:25.739Z,14.10
2019-01-16T09:14:15.029Z,10.17
2019-01-16T09:17:13.068Z,9.60
2019-01-16T09:20:08.431Z,8.77
2019-01-16T09:23:00.837Z,8.00
2019-01-16T09:25:53.068Z,9.30
2019-01-16T09:28:35.924Z,9.20
2019-01-16T09:31:29.977Z,8.43
2019-01-16T09:34:23.988Z,8.20
2019-01-16T09:37:13.146Z,9.67
2019-01-16T09:40:16.566Z,8.50
2019-01-16T09:43:11.865Z,8.45
2019-01-16T09:46:13.471Z,8.93
2019-01-16T09:49:05.401Z,7.57
2019-01-16T09:52:06.960Z,6.60
2019-01-16T09:55:05.443Z,6.80
2019-01-16T09:58:01.532Z,6.13
2019-01-16T10:00:53.827Z,5.20
2019-01-16T10:03:46.125Z,5.57
2019-01-16T10:06:34.369Z,5.40
2019-01-16T10:09:25.780Z,4.43
2019-01-16T10:12:10.401Z,4.40
2019-01-16T10:14:59.648Z,3.97
2019-01-16T10:18:00.958Z,3.73
2019-01-16T10:20:55.423Z,3.20
2019-01-16T10:23:48.670Z,3.07
2019-01-16T10:26:38.010Z,2.35
2019-01-16T10:29:27.252Z,2.30
2019-01-16T10:32:15.294Z,2.98
2019-01-16T10:35:07.816Z,2.85
2019-01-16T10:38:03.379Z,3.10
2019-01-16T10:40:52.110Z,2.70
2019-01-16T10:43:30.242Z,1.83
2019-01-16T10:46:34.855Z,3.50
2019-01-16T10:49:15.948Z,2.47
2019-01-16T10:52:04.103Z,2.77
2019-01-16T10:54:52.594Z,2.77
2019-01-16T10:57:51.172Z,4.23
2019-01-16T11:00:40.718Z,4.27
2019-01-16T11:03:48.084Z,5.20
2019-01-16T11:06:36.001Z,4.70
2019-01-16T11:09:28.714Z,4.30
2019-01-16T11:12:27.043Z,4.93
2019-01-16T11:15:09.097Z,5.03
2019-01-16T11:17:58.806Z,5.20
2019-01-16T11:20:43.159Z,4.80
2019-01-16T11:23:31.170Z,4.20
2019-01-16T11:26:13.002Z,4.30
2019-01-16T11:29:08.242Z,3.97
2019-01-16T11:31:56.118Z,3.60
2019-01-16T11:34:44.116Z,2.67
2019-01-16T11:37:33.238Z,2.25
2019-01-16T11:40:17.064Z,2.22
2019-01-16T11:42:56.155Z,2.87
2019-01-16T11:46:03.202Z,2.35
2019-01-16T11:48:52.638Z,3.40
2019-01-16T11:51:38.065Z,2.60
2019-01-16T11:54:27.208Z,2.95
2019-01-16T11:57:16.527Z,3.17
2019-01-16T12:00:17.755Z,3.02
2019-01-16T12:02:56.252Z,3.25
2019-01-16T12:05:41.160Z,3.67
2019-01-16T12:08:46.105Z,2.87
2019-01-16T12:11:30.927Z,3.62
2019-01-16T12:14:38.564Z,3.15
2019-01-16T12:17:43.085Z,2.62
2019-01-16T12:20:38.587Z,2.87
2019-01-16T12:23:26.460Z,2.63
2019-01-16T12:26:22.054Z,2.47
2019-01-16T12:29:20.188Z,3.05
2019-01-16T12:32:09.389Z,2.72
2019-01-16T12:34:58.556Z,2.90
2019-01-16T12:37:38.944Z,2.70
2019-01-16T12:40:26.828Z,2.35
2019-01-16T12:43:16.038Z,2.27
2019-01-16T12:46:05.249Z,3.00
2019-01-16T12:48:53.648Z,2.90
2019-01-16T12:51:48.622Z,3.15
2019-01-16T12:54:56.435Z,2.50
2019-01-16T12:57:58.080Z,2.60
2019-01-16T13:00:43.427Z,3.12
2019-01-16T13:03:27.231Z,3.30
2019-01-16T13:06:28.805Z,2.60
2019-01-16T13:09:10.444Z,2.80
2019-01-16T13:12:02.446Z,2.98
2019-01-16T13:14:51.638Z,3.05
2019-01-16T13:17:40.831Z,3.50
2019-01-16T13:20:22.983Z,2.30
2019-01-16T13:23:24.568Z,3.02
2019-01-16T13:26:29.208Z,3.02
2019-01-16T13:29:23.627Z,2.25
2019-01-16T13:32:11.753Z,2.15
2019-01-16T13:35:01.148Z,3.37
2019-01-16T13:38:03.055Z,2.70
2019-01-16T13:40:48.127Z,2.55
2019-01-16T13:43:29.239Z,3.50
2019-01-16T13:46:18.428Z,2.62
2019-01-16T13:49:03.894Z,2.33
2019-01-16T13:51:49.126Z,2.90
2019-01-16T13:54:47.645Z,3.10
2019-01-16T13:57:35.733Z,2.83
2019-01-16T14:00:26.697Z,2.42
2019-01-16T14:03:18.977Z,2.20
2019-01-16T14:06:06.887Z,2.85
2019-01-16T14:08:55.066Z,1.95
2019-01-16T14:11:43.208Z,2.53
2019-01-16T14:14:31.400Z,2.67
2019-01-16T14:17:21.029Z,2.92
2019-01-16T14:20:19.540Z,2.37
2019-01-16T14:23:13.356Z,2.80
2019-01-16T14:26:10.370Z,2.92
2019-01-16T14:28:59.776Z,2.70
2019-01-16T14:31:47.645Z,2.40
2019-01-16T14:34:41.459Z,3.05
2019-01-16T14:37:37.886Z,2.70
2019-01-16T14:40:16.978Z,2.45
2019-01-16T14:43:17.520Z,2.40
2019-01-16T14:46:13.741Z,2.60
2019-01-16T14:48:58.087Z,2.75
2019-01-16T14:51:59.751Z,2.77
2019-01-16T14:54:54.199Z,4.23
2019-01-16T14:57:52.684Z,2.53
2019-01-16T15:00:47.241Z,2.77
2019-01-16T15:03:35.698Z,3.20
2019-01-16T15:06:24.418Z,2.37
2019-01-16T15:09:11.592Z,2.50
2019-01-16T15:12:14.012Z,2.77
2019-01-16T15:15:15.389Z,2.60
2019-01-16T15:18:07.648Z,3.60
2019-01-16T15:21:03.162Z,2.67
2019-01-16T15:23:46.159Z,2.77
2019-01-16T15:26:47.886Z,4.03
2019-01-16T15:29:36.963Z,5.20
2019-01-16T15:32:32.609Z,4.00
2019-01-16T15:35:39.684Z,4.33
2019-01-16T15:38:20.732Z,4.63
2019-01-16T15:41:08.242Z,4.60
2019-01-16T15:43:51.179Z,4.80
2019-01-16T15:46:43.116Z,5.13
2019-01-16T15:49:39.599Z,5.10
2019-01-16T15:52:19.864Z,6.23
2019-01-16T15:55:07.976Z,5.73
2019-01-16T15:57:52.199Z,5.70
2019-01-16T16:00:41.479Z,5.47
2019-01-16T16:03:29.515Z,6.07
2019-01-16T16:06:24.862Z,5.83
2019-01-16T16:09:13.080Z,5.13
2019-01-16T16:12:01.491Z,5.43
2019-01-16T16:14:41.405Z,5.83
2019-01-16T16:17:29.410Z,6.17
2019-01-16T16:20:25.027Z,5.60
2019-01-16T16:23:14.319Z,6.03
2019-01-16T16:26:00.737Z,5.87
2019-01-16T16:28:53.295Z,5.37
2019-01-16T16:31:41.494Z,7.13
2019-01-16T16:34:29.402Z,6.10
2019-01-16T16:37:30.780Z,6.47
2019-01-16T16:40:22.806Z,6.20
2019-01-16T16:43:21.137Z,31.07
2019-01-16T16:46:19.001Z,8.27
2019-01-16T16:49:20.795Z,7.10
2019-01-16T16:52:12.863Z,6.33
2019-01-16T16:54:58.989Z,6.87
2019-01-16T16:57:46.825Z,7.03
2019-01-16T17:00:37.268Z,6.67
2019-01-16T17:03:25.148Z,6.70
2019-01-16T17:06:03.083Z,6.70
2019-01-16T17:08:55.450Z,6.80
2019-01-16T17:12:03.057Z,6.77
2019-01-16T17:14:55.316Z,7.40
2019-01-16T17:17:44.612Z,6.23
2019-01-16T17:20:32.562Z,6.80
2019-01-16T17:23:24.797Z,6.83
2019-01-16T17:26:16.424Z,7.33
2019-01-16T17:29:04.396Z,8.13
2019-01-16T17:32:02.687Z,7.80
2019-01-16T17:35:01.181Z,8.43
2019-01-16T17:37:49.436Z,9.47
2019-01-16T17:40:45.460Z,7.43
2019-01-16T17:43:33.426Z,9.13
2019-01-16T17:46:38.361Z,11.70
2019-01-16T17:49:23.356Z,9.20
2019-01-16T17:52:11.224Z,7.37
2019-01-16T17:55:00.452Z,8.67
2019-01-16T17:57:48.542Z,9.60
2019-01-16T18:00:56.305Z,8.23
2019-01-16T18:03:44.830Z,9.73
2019-01-16T18:06:26.719Z,9.50
2019-01-16T18:09:19.996Z,9.33
2019-01-16T18:12:27.365Z,10.10
2019-01-16T18:15:31.953Z,9.87
2019-01-16T18:18:29.857Z,11.47
2019-01-16T18:21:13.543Z,10.93
2019-01-16T18:24:02.770Z,10.17
2019-01-16T18:26:52.353Z,9.97
2019-01-16T18:29:30.914Z,12.20
2019-01-16T18:32:19.139Z,12.30
2019-01-16T18:35:26.985Z,11.60
2019-01-16T18:38:25.031Z,15.30
2019-01-16T18:41:19.838Z,16.47
2019-01-16T18:44:03.692Z,15.73
2019-01-16T18:46:52.903Z,15.80
2019-01-16T18:49:39.656Z,13.18
2019-01-16T18:52:42.361Z,13.27
2019-01-16T18:55:30.218Z,10.67
2019-01-16T18:58:17.179Z,9.80
2019-01-16T19:01:05.640Z,10.80
2019-01-16T19:03:48.349Z,10.53
2019-01-16T19:06:36.496Z,10.53
2019-01-16T19:09:40.590Z,11.27
2019-01-16T19:12:28.576Z,11.83
2019-01-16T19:15:21.875Z,10.80
2019-01-16T19:17:59.381Z,14.43
2019-01-16T19:21:02.941Z,10.80
2019-01-16T19:23:49.519Z,9.03
2019-01-16T19:26:44.920Z,10.47
2019-01-16T19:29:46.113Z,19.50
2019-01-16T19:32:44.471Z,13.30
2019-01-16T19:35:39.713Z,12.03
2019-01-16T19:38:25.837Z,12.07
2019-01-16T19:41:16.802Z,11.77
2019-01-16T19:44:24.490Z,12.70
2019-01-16T19:47:29.272Z,12.93
2019-01-16T19:50:13.858Z,12.23
2019-01-16T19:52:52.708Z,14.97
2019-01-16T19:55:57.731Z,14.53
2019-01-16T19:58:45.966Z,14.90
2019-01-16T20:01:33.849Z,14.57
2019-01-16T20:04:29.083Z,11.67
2019-01-16T20:07:21.128Z,12.73
2019-01-16T20:10:19.622Z,12.37
2019-01-16T20:13:12.155Z,13.17
2019-01-16T20:15:51.980Z,13.50
2019-01-16T20:18:40.695Z,12.83
2019-01-16T20:21:22.673Z,11.77
2019-01-16T20:24:09.694Z,13.97
2019-01-16T20:27:03.248Z,17.47
2019-01-16T20:29:48.018Z,15.43
2019-01-16T20:32:46.400Z,17.73
2019-01-16T20:35:48.894Z,15.57
2019-01-16T20:38:36.867Z,16.60
2019-01-16T20:41:24.873Z,13.97
2019-01-16T20:44:14.079Z,15.43
2019-01-16T20:47:02.529Z,14.83
2019-01-16T20:49:54.838Z,14.60
2019-01-16T20:52:33.180Z,16.10
2019-01-16T20:55:22.373Z,15.03
2019-01-16T20:58:11.962Z,15.30
2019-01-16T21:00:59.716Z,16.97
2019-01-16T21:03:48.310Z,14.97
2019-01-16T21:06:37.875Z,15.13
2019-01-16T21:09:34.136Z,14.60
2019-01-16T21:12:22.589Z,14.73
2019-01-16T21:15:08.506Z,14.03
2019-01-16T21:18:04.167Z,14.67
2019-01-16T21:20:52.788Z,14.40
2019-01-16T21:23:40.748Z,14.97
2019-01-16T21:26:45.359Z,12.73
2019-01-16T21:29:43.034Z,13.53
2019-01-16T21:32:22.069Z,11.90
2019-01-16T21:35:04.051Z,12.93
2019-01-16T21:37:53.749Z,15.37
2019-01-16T21:40:41.712Z,13.17
2019-01-16T21:43:28.719Z,12.67
2019-01-16T21:46:33.136Z,12.53
2019-01-16T21:49:18.599Z,13.63
2019-01-16T21:52:00.167Z,12.87
2019-01-16T21:54:51.931Z,12.60
2019-01-16T21:57:35.160Z,12.33
2019-01-16T22:00:22.957Z,12.17
2019-01-16T22:03:18.601Z,11.03
2019-01-16T22:06:00.887Z,11.53
2019-01-16T22:08:49.398Z,11.87
2019-01-16T22:11:37.795Z,11.77
2019-01-16T22:14:25.557Z,13.67
2019-01-16T22:17:32.980Z,13.67
2019-01-16T22:20:21.087Z,12.43
2019-01-16T22:23:19.651Z,13.00
2019-01-16T22:26:11.855Z,13.57
2019-01-16T22:28:53.478Z,12.53
2019-01-16T22:31:46.760Z,11.57
2019-01-16T22:34:41.877Z,11.27
2019-01-16T22:37:34.294Z,10.43
2019-01-16T22:40:35.011Z,11.57
2019-01-16T22:43:27.781Z,13.63
2019-01-16T22:46:05.734Z,12.50
2019-01-16T22:48:58.100Z,11.43
2019-01-16T22:51:54.131Z,11.20
2019-01-16T22:54:46.699Z,11.17
2019-01-16T22:57:54.118Z,11.43
2019-01-16T23:01:00.179Z,11.10
2019-01-16T23:03:45.945Z,12.23
2019-01-16T23:06:33.930Z,10.83
2019-01-16T23:09:25.004Z,14.70
2019-01-16T23:12:07.549Z,11.53
2019-01-16T23:14:46.638Z,11.47
2019-01-16T23:17:41.624Z,11.13
2019-01-16T23:20:30.868Z,10.63
2019-01-16T23:23:20.069Z,10.73
2019-01-16T23:26:09.281Z,9.07
2019-01-16T23:29:07.901Z,10.93
2019-01-16T23:32:06.386Z,10.43
2019-01-16T23:34:55.169Z,9.90
2019-01-16T23:37:50.410Z,9.53
2019-01-16T23:40:45.861Z,10.10
2019-01-16T23:43:35.424Z,8.80
2019-01-16T23:46:24.381Z,8.93
2019-01-16T23:49:20.721Z,8.50
2019-01-16T23:52:19.390Z,8.33
2019-01-16T23:55:07.531Z,7.93
2019-01-16T23:57:48.851Z,7.83
